9OK3 weather

Flying Eagle Estates Airport
Bartlesville, Oklahoma, United States

Public forecast

Using degrees Fahrenheit for public forecast. Weather courtesy of forecast.io.

METAR (pilot weather report)

Closest report is Bartlesville Municipal Airport, 8.9 nm (16.6 km) WNW. Retrieved 2019/04/24 01:23 UTC (4 minutes ago):

KBVO 240123Z AUTO 00000KT 10SM OVC009 13/12 A3000 RMK AO2 T01330117 $

TAF (pilot weather forecast)

Forecast is more than 12 hours old.

Closest forecast is Bartlesville Municipal Airport, 8.9 nm (16.6 km) WNW. Retrieved 2019/04/23 00:22 UTC (1 day ago):

TAF KBVO 232320Z 2400/2424 01008KT P6SM OVC007 FM240900 35003KT 4SM BR OVC004 TEMPO 2409/2413 2SM BR OVC001 FM241800 35002KT P6SM OVC025 FM242100 14002KT P6SM BKN050